createdAt,value
2022-12-08T00:00:03.105Z,16.63
2022-12-08T00:02:13.958Z,19.43
2022-12-08T00:04:15.805Z,20.53
2022-12-08T00:06:45.290Z,20.93
2022-12-08T00:09:05.519Z,17.67
2022-12-08T00:11:13.092Z,17.90
2022-12-08T00:13:18.482Z,20.57
2022-12-08T00:15:20.122Z,19.97
2022-12-08T00:17:21.828Z,20.83
2022-12-08T00:19:24.756Z,21.33
2022-12-08T00:21:26.399Z,18.07
2022-12-08T00:23:28.309Z,21.43
2022-12-08T00:25:31.230Z,20.07
2022-12-08T00:27:35.911Z,21.93
2022-12-08T00:29:39.055Z,20.13
2022-12-08T00:31:40.823Z,22.17
2022-12-08T00:33:42.728Z,20.80
2022-12-08T00:35:46.536Z,21.10
2022-12-08T00:37:48.359Z,20.53
2022-12-08T00:39:50.156Z,22.80
2022-12-08T00:42:13.112Z,17.47
2022-12-08T00:44:18.887Z,18.77
2022-12-08T00:46:21.154Z,19.43
2022-12-08T00:48:22.992Z,20.80
2022-12-08T00:50:24.656Z,21.70
2022-12-08T00:52:26.389Z,20.20
2022-12-08T00:54:28.049Z,21.97
2022-12-08T00:56:30.099Z,20.80
2022-12-08T00:58:33.025Z,19.60
2022-12-08T01:00:34.669Z,21.27
2022-12-08T01:02:36.343Z,22.23
2022-12-08T01:04:40.547Z,20.00
2022-12-08T01:06:43.372Z,21.03
2022-12-08T01:08:45.166Z,22.30
2022-12-08T01:10:46.895Z,23.60
2022-12-08T01:12:48.537Z,20.87
2022-12-08T01:15:02.032Z,22.07
2022-12-08T01:17:04.354Z,23.00
2022-12-08T01:19:06.087Z,24.73
2022-12-08T01:21:08.382Z,21.00
2022-12-08T01:23:12.332Z,23.23
2022-12-08T01:25:14.174Z,23.23
2022-12-08T01:27:16.651Z,25.23
2022-12-08T01:29:19.562Z,20.53
2022-12-08T01:31:26.847Z,19.47
2022-12-08T01:33:31.406Z,20.83
2022-12-08T01:35:34.614Z,22.73
2022-12-08T01:37:36.262Z,19.10
2022-12-08T01:39:37.939Z,21.73
2022-12-08T01:41:42.230Z,20.13
2022-12-08T01:44:23.974Z,19.93
2022-12-08T01:46:26.453Z,23.73
2022-12-08T01:48:28.904Z,25.47
2022-12-08T01:50:31.178Z,22.23
2022-12-08T01:52:38.839Z,23.03
2022-12-08T01:54:52.804Z,28.63
2022-12-08T01:57:11.657Z,23.23
2022-12-08T01:59:13.556Z,23.80
2022-12-08T02:01:17.703Z,21.93
2022-12-08T02:03:28.540Z,26.47
2022-12-08T02:05:36.964Z,21.30
2022-12-08T02:07:38.789Z,23.60
2022-12-08T02:09:41.549Z,24.13
2022-12-08T02:11:43.171Z,20.73
2022-12-08T02:13:47.063Z,20.53
2022-12-08T02:16:14.822Z,20.37
2022-12-08T02:18:26.511Z,20.67
2022-12-08T02:20:46.952Z,21.60
2022-12-08T02:23:04.052Z,19.97
2022-12-08T02:25:29.565Z,22.87
2022-12-08T02:27:41.085Z,20.17
2022-12-08T02:30:03.684Z,18.17
2022-12-08T02:32:59.208Z,17.83
2022-12-08T02:35:10.993Z,17.77
2022-12-08T02:37:37.883Z,20.70
2022-12-08T02:40:08.746Z,19.47
2022-12-08T02:42:27.637Z,18.20
2022-12-08T02:44:42.550Z,17.60
2022-12-08T02:47:04.849Z,19.03
2022-12-08T02:49:09.696Z,18.00
2022-12-08T02:51:11.394Z,20.10
2022-12-08T02:55:22.788Z,20.33
2022-12-08T02:57:50.915Z,18.20
2022-12-08T03:00:13.313Z,19.40
2022-12-08T03:02:15.011Z,19.00
2022-12-08T03:04:34.451Z,19.03
2022-12-08T03:06:50.973Z,17.40
2022-12-08T03:09:11.999Z,17.43
2022-12-08T03:11:20.293Z,19.07
2022-12-08T03:13:34.111Z,17.13
2022-12-08T03:15:38.582Z,16.33
2022-12-08T03:17:45.449Z,14.57
2022-12-08T03:19:53.771Z,15.77
2022-12-08T03:22:03.422Z,16.63
2022-12-08T03:24:07.827Z,16.30
2022-12-08T03:26:18.475Z,17.27
2022-12-08T03:28:21.345Z,16.00
2022-12-08T03:30:23.145Z,17.50
2022-12-08T03:32:38.897Z,17.23
2022-12-08T03:34:46.531Z,16.97
2022-12-08T03:36:49.600Z,16.93
2022-12-08T03:38:52.902Z,14.83
2022-12-08T03:41:14.226Z,16.00
2022-12-08T03:43:16.039Z,15.07
2022-12-08T03:45:17.702Z,14.70
2022-12-08T03:47:19.408Z,13.97
2022-12-08T03:49:21.169Z,15.33
2022-12-08T03:51:23.759Z,13.73
2022-12-08T03:53:28.245Z,12.33
2022-12-08T03:55:29.879Z,11.47
2022-12-08T03:57:31.620Z,12.10
2022-12-08T03:59:33.244Z,13.40
2022-12-08T04:01:35.026Z,10.07
2022-12-08T04:03:39.892Z,10.17
2022-12-08T04:05:41.650Z,10.63
2022-12-08T04:07:43.545Z,9.00
2022-12-08T04:09:45.432Z,7.97
2022-12-08T04:11:47.098Z,8.47
2022-12-08T04:13:49.861Z,9.93
2022-12-08T04:15:52.619Z,8.47
2022-12-08T04:17:54.284Z,8.13
2022-12-08T04:19:55.919Z,8.60
2022-12-08T04:21:57.638Z,9.07
2022-12-08T04:24:01.490Z,11.30
2022-12-08T04:26:06.426Z,8.70
2022-12-08T04:28:08.158Z,8.47
2022-12-08T04:30:12.760Z,8.50
2022-12-08T04:32:16.952Z,10.10
2022-12-08T04:34:20.919Z,7.13
2022-12-08T04:36:22.621Z,8.67
2022-12-08T04:38:24.334Z,11.57
2022-12-08T04:40:26.125Z,8.80
2022-12-08T04:42:29.333Z,8.27
2022-12-08T04:44:31.008Z,10.33
2022-12-08T04:46:32.766Z,6.97
2022-12-08T04:48:36.301Z,8.27
2022-12-08T04:50:42.925Z,7.17
2022-12-08T04:52:47.201Z,7.50
2022-12-08T04:54:49.101Z,7.67
2022-12-08T04:56:50.751Z,7.93
2022-12-08T04:58:52.805Z,8.30
2022-12-08T05:00:54.561Z,7.47
2022-12-08T05:02:56.393Z,8.10
2022-12-08T05:05:00.523Z,7.77
2022-12-08T05:07:02.218Z,7.07
2022-12-08T05:09:04.179Z,8.00
2022-12-08T05:11:08.343Z,7.30
2022-12-08T05:13:11.271Z,8.30
2022-12-08T05:15:12.883Z,7.50
2022-12-08T05:17:16.067Z,7.83
2022-12-08T05:19:18.212Z,6.83
2022-12-08T05:21:22.015Z,8.77
2022-12-08T05:23:23.667Z,7.40
2022-12-08T05:25:28.867Z,6.30
2022-12-08T05:27:30.549Z,6.60
2022-12-08T05:29:32.371Z,6.63
2022-12-08T05:31:34.100Z,7.33
2022-12-08T05:33:35.772Z,6.80
2022-12-08T05:35:40.056Z,6.07
2022-12-08T05:37:41.718Z,7.10
2022-12-08T05:39:44.155Z,6.43
2022-12-08T05:41:45.823Z,6.20
2022-12-08T05:43:48.052Z,7.80
2022-12-08T05:45:49.752Z,6.60
2022-12-08T05:47:53.721Z,5.30
2022-12-08T05:49:57.555Z,6.03
2022-12-08T05:51:59.277Z,6.20
2022-12-08T05:54:01.159Z,7.27
2022-12-08T05:56:02.822Z,5.90
2022-12-08T05:58:07.894Z,6.43
2022-12-08T06:00:10.542Z,5.70
2022-12-08T06:02:15.135Z,6.83
2022-12-08T06:04:16.940Z,8.63
2022-12-08T06:06:18.970Z,7.33
2022-12-08T06:08:23.193Z,7.53
2022-12-08T06:10:24.944Z,6.60
2022-12-08T06:12:26.677Z,5.70
2022-12-08T06:14:30.405Z,6.27
2022-12-08T06:16:32.304Z,6.00
2022-12-08T06:18:34.103Z,7.30
2022-12-08T06:20:35.874Z,9.77
2022-12-08T06:22:37.781Z,6.07
2022-12-08T06:24:39.471Z,7.67
2022-12-08T06:26:41.512Z,6.20
2022-12-08T06:28:43.801Z,6.80
2022-12-08T06:30:45.481Z,7.47
2022-12-08T06:32:47.111Z,7.23
2022-12-08T06:34:51.357Z,6.90
2022-12-08T06:36:53.048Z,6.93
2022-12-08T06:38:55.226Z,6.57
2022-12-08T06:40:58.450Z,8.23
2022-12-08T06:43:00.078Z,7.33
2022-12-08T06:45:11.424Z,9.17
2022-12-08T06:47:16.066Z,7.47
2022-12-08T06:49:17.755Z,8.20
2022-12-08T06:51:22.711Z,6.73
2022-12-08T06:53:26.578Z,8.37
2022-12-08T06:55:58.744Z,7.17
2022-12-08T06:57:53.989Z,7.50
2022-12-08T06:59:55.933Z,7.30
2022-12-08T07:01:57.634Z,7.10
2022-12-08T07:03:59.376Z,7.63
2022-12-08T07:06:04.123Z,8.93
2022-12-08T07:08:08.299Z,10.27
2022-12-08T07:10:10.937Z,9.57
2022-12-08T07:12:12.618Z,8.70
2022-12-08T07:14:14.592Z,9.07
2022-12-08T07:16:16.570Z,8.57
2022-12-08T07:18:18.315Z,9.27
2022-12-08T07:20:20.034Z,10.33
2022-12-08T07:22:24.194Z,9.20
2022-12-08T07:24:26.210Z,9.40
2022-12-08T07:26:29.138Z,9.10
2022-12-08T07:28:37.064Z,9.07
2022-12-08T07:30:41.729Z,9.30
2022-12-08T07:32:43.555Z,9.80
2022-12-08T07:34:47.179Z,8.60
2022-12-08T07:36:49.108Z,9.77
2022-12-08T07:38:53.939Z,9.80
2022-12-08T07:40:55.588Z,9.50
2022-12-08T07:42:57.208Z,11.57
2022-12-08T07:44:59.197Z,9.67
2022-12-08T07:47:03.253Z,10.77
2022-12-08T07:49:04.990Z,10.27
2022-12-08T07:51:06.752Z,9.00
2022-12-08T07:53:09.003Z,9.80
2022-12-08T07:55:12.188Z,10.80
2022-12-08T07:57:13.885Z,8.93
2022-12-08T07:59:15.644Z,11.37
2022-12-08T08:01:26.587Z,10.37
2022-12-08T08:03:28.466Z,9.83
2022-12-08T08:05:30.207Z,10.93
2022-12-08T08:07:32.272Z,10.67
2022-12-08T08:09:34.342Z,11.23
2022-12-08T08:11:36.533Z,11.37
2022-12-08T08:13:38.247Z,10.30
2022-12-08T08:15:40.668Z,10.00
2022-12-08T08:17:42.410Z,10.90
2022-12-08T08:19:45.651Z,9.13
2022-12-08T08:21:47.345Z,10.63
2022-12-08T08:23:49.278Z,10.60
2022-12-08T08:25:53.044Z,9.80
2022-12-08T08:27:55.005Z,11.17
2022-12-08T08:29:58.807Z,10.50
2022-12-08T08:32:00.519Z,12.43
2022-12-08T08:34:06.076Z,11.83
2022-12-08T08:36:09.250Z,11.80
2022-12-08T08:38:10.883Z,9.80
2022-12-08T08:40:12.749Z,10.53
2022-12-08T08:42:14.362Z,11.87
2022-12-08T08:44:15.975Z,11.93
2022-12-08T08:46:17.666Z,11.03
2022-12-08T08:48:20.553Z,11.17
2022-12-08T08:50:25.307Z,11.47
2022-12-08T08:52:26.987Z,11.60
2022-12-08T08:54:29.363Z,13.03
2022-12-08T08:56:34.087Z,11.87
2022-12-08T08:58:35.737Z,11.43
2022-12-08T09:00:37.358Z,10.67
2022-12-08T09:02:39.398Z,11.17
2022-12-08T09:04:41.129Z,10.80
2022-12-08T09:06:45.715Z,11.17
2022-12-08T09:08:47.809Z,10.73
2022-12-08T09:10:49.473Z,13.63
2022-12-08T09:12:51.870Z,12.47
2022-12-08T09:14:53.529Z,12.13
2022-12-08T09:16:56.326Z,13.20
2022-12-08T09:19:00.471Z,12.17
2022-12-08T09:21:07.266Z,12.23
2022-12-08T09:23:08.990Z,12.53
2022-12-08T09:25:10.700Z,14.87
2022-12-08T09:27:12.382Z,13.17
2022-12-08T09:29:17.569Z,11.83
2022-12-08T09:31:21.401Z,13.27
2022-12-08T09:33:23.433Z,12.30
2022-12-08T09:35:26.240Z,11.47
2022-12-08T09:37:27.884Z,12.30
2022-12-08T09:39:29.839Z,11.60
2022-12-08T09:41:48.725Z,12.77
2022-12-08T09:44:09.124Z,13.57
2022-12-08T09:46:13.429Z,12.20
2022-12-08T09:48:47.960Z,12.20
2022-12-08T09:50:57.846Z,12.03
2022-12-08T09:53:14.305Z,12.23
2022-12-08T09:55:59.505Z,12.50
2022-12-08T09:58:04.847Z,11.93
2022-12-08T10:00:08.054Z,11.87
2022-12-08T10:02:22.729Z,11.93
2022-12-08T10:04:37.071Z,11.97
2022-12-08T10:06:42.351Z,11.47
2022-12-08T10:09:00.665Z,12.20
2022-12-08T10:11:11.449Z,12.67
2022-12-08T10:13:35.211Z,12.27
2022-12-08T10:16:22.036Z,12.13
2022-12-08T10:18:32.248Z,14.07
2022-12-08T10:20:40.379Z,13.67
2022-12-08T10:22:44.926Z,11.90
2022-12-08T10:24:57.792Z,12.00
2022-12-08T10:27:07.947Z,11.67
2022-12-08T10:29:13.453Z,15.17
2022-12-08T10:31:21.412Z,12.20
2022-12-08T10:33:23.760Z,11.93
2022-12-08T10:35:41.781Z,14.00
2022-12-08T10:37:58.220Z,13.93
2022-12-08T10:40:04.026Z,14.37
2022-12-08T10:42:21.780Z,12.93
2022-12-08T10:44:23.444Z,12.33
2022-12-08T10:46:27.557Z,15.10
2022-12-08T10:48:31.208Z,13.90
2022-12-08T10:50:47.641Z,12.47
2022-12-08T10:53:08.635Z,12.73
2022-12-08T10:55:21.849Z,13.43
2022-12-08T10:57:25.247Z,12.77
2022-12-08T10:59:33.871Z,12.90
2022-12-08T11:01:39.222Z,14.73
2022-12-08T11:03:50.424Z,11.90
2022-12-08T11:05:56.457Z,12.23
2022-12-08T11:07:58.860Z,13.27
2022-12-08T11:10:00.870Z,12.10
2022-12-08T11:12:17.420Z,13.17
2022-12-08T11:14:26.616Z,12.97
2022-12-08T11:16:31.120Z,14.30
2022-12-08T11:18:42.348Z,12.50
2022-12-08T11:20:44.053Z,13.07
2022-12-08T11:22:54.409Z,12.33
2022-12-08T11:25:03.888Z,14.43
2022-12-08T11:27:06.863Z,14.70
2022-12-08T11:29:12.681Z,13.53
2022-12-08T11:31:38.389Z,13.73
2022-12-08T11:33:44.201Z,14.47
2022-12-08T11:35:52.782Z,13.10
2022-12-08T11:38:20.538Z,10.70
2022-12-08T11:40:28.276Z,15.00
2022-12-08T11:42:37.648Z,11.97
2022-12-08T11:44:47.644Z,13.63
2022-12-08T11:46:56.935Z,11.03
2022-12-08T11:49:06.676Z,12.43
2022-12-08T11:51:28.737Z,13.73
2022-12-08T11:53:38.892Z,12.67
2022-12-08T11:55:50.197Z,14.00
2022-12-08T11:57:53.643Z,14.00
2022-12-08T12:00:02.285Z,14.30
2022-12-08T12:02:24.316Z,12.07
2022-12-08T12:04:38.619Z,18.60
2022-12-08T12:07:19.406Z,14.17
2022-12-08T12:09:51.531Z,11.30
2022-12-08T12:12:19.181Z,12.83
2022-12-08T12:14:44.559Z,12.87
2022-12-08T12:16:57.919Z,13.10
2022-12-08T12:19:06.953Z,13.00
2022-12-08T12:21:26.255Z,12.53
2022-12-08T12:23:59.028Z,11.53
2022-12-08T12:26:05.377Z,11.87
2022-12-08T12:28:12.086Z,16.43
2022-12-08T12:30:26.511Z,13.80
2022-12-08T12:32:45.349Z,12.43
2022-12-08T12:34:54.496Z,12.03
2022-12-08T12:36:57.996Z,12.10
2022-12-08T12:39:01.047Z,14.00
2022-12-08T12:41:05.984Z,13.37
2022-12-08T12:43:10.357Z,12.73
2022-12-08T12:45:17.785Z,14.37
2022-12-08T12:47:59.793Z,12.03
2022-12-08T12:50:08.545Z,8.73
2022-12-08T12:52:10.293Z,12.50
2022-12-08T12:54:28.339Z,10.80
2022-12-08T12:57:05.278Z,13.10
2022-12-08T12:59:44.463Z,10.83
2022-12-08T13:01:56.720Z,9.20
2022-12-08T13:04:09.630Z,10.33
2022-12-08T13:06:19.229Z,9.67
2022-12-08T13:08:23.824Z,10.20
2022-12-08T13:10:29.053Z,14.63
2022-12-08T13:12:31.033Z,9.67
2022-12-08T13:14:36.044Z,13.47
2022-12-08T13:16:41.678Z,11.60
2022-12-08T13:18:49.141Z,11.20
2022-12-08T13:21:09.756Z,12.43
2022-12-08T13:23:26.031Z,11.03
2022-12-08T13:25:39.749Z,12.00
2022-12-08T13:27:55.689Z,12.77
2022-12-08T13:30:51.786Z,13.97
2022-12-08T13:35:23.429Z,12.47
2022-12-08T13:37:30.651Z,12.57
2022-12-08T13:39:49.787Z,11.10
2022-12-08T13:42:07.228Z,10.57
2022-12-08T13:47:24.715Z,11.80
2022-12-08T13:55:13.575Z,12.43
2022-12-08T13:57:10.490Z,11.47
2022-12-08T13:59:19.257Z,11.47
2022-12-08T14:01:25.693Z,12.57
2022-12-08T14:03:27.998Z,10.93
2022-12-08T14:06:10.483Z,10.77
2022-12-08T14:08:02.950Z,11.63
2022-12-08T14:10:25.810Z,10.00
2022-12-08T14:12:29.829Z,9.40
2022-12-08T14:15:01.809Z,9.77
2022-12-08T14:17:03.257Z,10.13
2022-12-08T14:19:26.488Z,8.30
2022-12-08T14:21:35.862Z,10.93
2022-12-08T14:23:38.301Z,9.70
2022-12-08T14:25:47.649Z,11.57
2022-12-08T14:27:50.071Z,11.37
2022-12-08T14:29:53.993Z,12.47
2022-12-08T14:31:55.981Z,11.43
2022-12-08T14:33:57.704Z,9.53
2022-12-08T14:35:59.719Z,7.53
2022-12-08T14:38:06.157Z,7.53
2022-12-08T14:40:23.668Z,6.57
2022-12-08T14:42:27.823Z,7.40
2022-12-08T14:44:33.092Z,7.13
2022-12-08T14:46:34.797Z,7.73
2022-12-08T14:48:36.448Z,7.10
2022-12-08T14:51:05.475Z,6.47
2022-12-08T14:53:17.257Z,6.53
2022-12-08T14:55:22.423Z,7.27
2022-12-08T14:57:39.873Z,7.60
2022-12-08T14:59:45.382Z,7.37
2022-12-08T15:01:52.027Z,7.57
2022-12-08T15:04:01.262Z,8.50
2022-12-08T15:06:07.817Z,7.90
2022-12-08T15:08:14.871Z,8.07
2022-12-08T15:10:16.821Z,7.53
2022-12-08T15:12:27.308Z,7.80
2022-12-08T15:14:36.631Z,7.77
2022-12-08T15:16:43.788Z,7.80
2022-12-08T15:18:51.858Z,9.20
2022-12-08T15:21:00.877Z,9.47
2022-12-08T15:23:05.705Z,8.47
2022-12-08T15:25:13.715Z,10.33
2022-12-08T15:27:20.700Z,8.30
2022-12-08T15:29:25.651Z,8.10
2022-12-08T15:31:27.582Z,6.90
2022-12-08T15:33:29.323Z,7.63
2022-12-08T15:35:34.654Z,7.17
2022-12-08T15:37:38.989Z,8.53
2022-12-08T15:39:40.632Z,8.77
2022-12-08T15:41:42.411Z,10.67
2022-12-08T15:43:47.160Z,11.73
2022-12-08T15:45:58.591Z,9.10
2022-12-08T15:48:02.164Z,7.50
2022-12-08T15:50:05.698Z,8.63
2022-12-08T15:52:27.314Z,9.80
2022-12-08T15:54:29.838Z,8.40
2022-12-08T15:56:41.087Z,8.60
2022-12-08T15:58:54.244Z,10.33
2022-12-08T16:00:57.973Z,9.67
2022-12-08T16:03:42.180Z,8.53
2022-12-08T16:05:42.857Z,13.43
2022-12-08T16:07:52.900Z,15.83
2022-12-08T16:09:56.940Z,10.17
2022-12-08T16:12:17.914Z,8.27
2022-12-08T16:15:15.956Z,10.23
2022-12-08T16:16:47.542Z,8.90
2022-12-08T16:18:51.028Z,6.67
2022-12-08T16:23:34.541Z,8.97
2022-12-08T16:26:00.128Z,6.77
2022-12-08T16:28:02.909Z,6.60
2022-12-08T16:30:08.798Z,7.30
2022-12-08T16:32:10.633Z,8.57
2022-12-08T16:34:12.496Z,8.23
2022-12-08T16:36:18.361Z,6.23
2022-12-08T16:38:20.577Z,6.50
2022-12-08T16:40:27.166Z,6.87
2022-12-08T16:42:39.643Z,6.90
2022-12-08T16:44:44.395Z,7.87
2022-12-08T16:46:53.329Z,9.33
2022-12-08T16:48:56.893Z,9.13
2022-12-08T16:50:58.657Z,10.40
2022-12-08T16:53:05.223Z,10.40
2022-12-08T16:55:11.375Z,14.37
2022-12-08T16:57:13.133Z,22.17
2022-12-08T16:59:14.769Z,16.93
2022-12-08T17:01:19.857Z,14.30
2022-12-08T17:03:26.187Z,14.70
2022-12-08T17:05:30.260Z,12.13
2022-12-08T17:07:32.181Z,10.27
2022-12-08T17:09:33.849Z,11.23
2022-12-08T17:11:42.626Z,10.47
2022-12-08T17:13:45.195Z,10.97
2022-12-08T17:15:46.853Z,14.57
2022-12-08T17:17:51.730Z,11.43
2022-12-08T17:19:55.561Z,11.97
2022-12-08T17:21:57.339Z,9.03
2022-12-08T17:23:59.109Z,9.20
2022-12-08T17:26:01.237Z,10.60
2022-12-08T17:28:05.318Z,11.67
2022-12-08T17:30:11.430Z,11.93
2022-12-08T17:32:13.289Z,12.33
2022-12-08T17:34:15.167Z,12.67
2022-12-08T17:36:17.553Z,16.40
2022-12-08T17:38:20.756Z,18.13
2022-12-08T17:40:25.550Z,17.37
2022-12-08T17:42:29.713Z,13.93
2022-12-08T17:44:33.249Z,11.83
2022-12-08T17:46:41.347Z,12.07
2022-12-08T17:48:44.455Z,11.87
2022-12-08T17:50:46.176Z,14.53
2022-12-08T17:52:50.943Z,16.43
2022-12-08T17:54:52.736Z,13.77
2022-12-08T17:56:54.957Z,12.90
2022-12-08T17:58:56.665Z,14.27
2022-12-08T18:00:58.335Z,16.20
2022-12-08T18:03:00.489Z,17.87
2022-12-08T18:05:05.086Z,20.10
2022-12-08T18:07:06.809Z,18.93
2022-12-08T18:09:09.840Z,22.63
2022-12-08T18:11:16.592Z,44.17
2022-12-08T18:13:18.436Z,29.87
2022-12-08T18:15:20.437Z,31.57
2022-12-08T18:17:24.377Z,26.40
2022-12-08T18:19:26.257Z,20.70
2022-12-08T18:21:30.665Z,17.33
2022-12-08T18:23:32.430Z,15.43
2022-12-08T18:25:36.495Z,15.77
2022-12-08T18:27:44.929Z,13.40
2022-12-08T18:29:46.712Z,12.83
2022-12-08T18:31:49.056Z,13.80
2022-12-08T18:33:52.511Z,16.10
2022-12-08T18:35:56.403Z,18.13
2022-12-08T18:38:00.106Z,15.57
2022-12-08T18:40:01.914Z,16.60
2022-12-08T18:42:22.643Z,12.53
2022-12-08T18:44:24.927Z,14.37
2022-12-08T18:46:26.636Z,15.03
2022-12-08T18:48:28.372Z,14.70
2022-12-08T18:50:30.056Z,15.37
2022-12-08T18:52:34.810Z,13.43
2022-12-08T18:55:05.073Z,12.50
2022-12-08T18:56:59.787Z,14.43
2022-12-08T18:59:07.041Z,14.10
2022-12-08T19:01:13.663Z,12.87
2022-12-08T19:03:15.337Z,12.50
2022-12-08T19:05:17.132Z,12.10
2022-12-08T19:07:19.851Z,9.80
2022-12-08T19:09:22.572Z,10.60
2022-12-08T19:11:27.786Z,8.83
2022-12-08T19:13:30.351Z,10.97
2022-12-08T19:15:33.556Z,11.33
2022-12-08T19:17:35.259Z,8.77
2022-12-08T19:19:36.910Z,11.83
2022-12-08T19:21:46.356Z,10.97
2022-12-08T19:23:55.793Z,9.73
2022-12-08T19:25:57.492Z,9.40
2022-12-08T19:27:59.221Z,10.40
2022-12-08T19:30:03.474Z,10.37
2022-12-08T19:32:05.464Z,10.20
2022-12-08T19:34:09.025Z,10.83
2022-12-08T19:36:14.559Z,10.47
2022-12-08T19:38:17.204Z,11.27
2022-12-08T19:40:39.221Z,11.83
2022-12-08T19:42:59.651Z,10.53
2022-12-08T19:45:05.735Z,10.57
2022-12-08T19:47:07.630Z,9.80
2022-12-08T19:49:11.800Z,10.83
2022-12-08T19:51:13.662Z,13.13
2022-12-08T19:53:15.901Z,12.20
2022-12-08T19:55:17.629Z,12.50
2022-12-08T19:57:20.308Z,10.70
2022-12-08T19:59:26.041Z,12.47
2022-12-08T20:01:27.750Z,15.33
2022-12-08T20:03:29.556Z,18.07
2022-12-08T20:05:33.231Z,14.20
2022-12-08T20:07:36.876Z,15.57
2022-12-08T20:09:38.569Z,16.83
2022-12-08T20:11:41.112Z,17.40
2022-12-08T20:13:45.355Z,14.37
2022-12-08T20:15:48.507Z,13.07
2022-12-08T20:17:50.300Z,12.20
2022-12-08T20:19:53.341Z,12.43
2022-12-08T20:21:55.575Z,13.43
2022-12-08T20:23:57.549Z,12.00
2022-12-08T20:26:01.831Z,10.67
2022-12-08T20:28:06.116Z,12.77
2022-12-08T20:30:13.360Z,11.47
2022-12-08T20:32:20.493Z,10.23
2022-12-08T20:34:22.338Z,11.13
2022-12-08T20:36:26.603Z,9.77
2022-12-08T20:38:31.147Z,9.23
2022-12-08T20:40:32.954Z,9.27
2022-12-08T20:42:34.699Z,11.70
2022-12-08T20:44:36.544Z,14.13
2022-12-08T20:46:38.610Z,11.20
2022-12-08T20:48:41.295Z,12.00
2022-12-08T20:50:43.189Z,12.27
2022-12-08T20:52:47.586Z,11.70
2022-12-08T20:54:49.622Z,12.40
2022-12-08T20:56:53.460Z,10.70
2022-12-08T20:58:57.197Z,10.03
2022-12-08T21:00:59.084Z,10.97
2022-12-08T21:03:01.231Z,10.30
2022-12-08T21:05:03.296Z,9.93
2022-12-08T21:07:05.553Z,11.43
2022-12-08T21:09:07.452Z,10.93
2022-12-08T21:11:09.787Z,14.70
2022-12-08T21:13:14.287Z,11.93
2022-12-08T21:15:16.175Z,12.40
2022-12-08T21:17:20.927Z,10.97
2022-12-08T21:19:23.022Z,10.13
2022-12-08T21:21:25.131Z,10.73
2022-12-08T21:23:27.275Z,11.87
2022-12-08T21:25:29.189Z,10.33
2022-12-08T21:27:31.110Z,10.97
2022-12-08T21:29:32.866Z,11.73
2022-12-08T21:31:36.190Z,10.17
2022-12-08T21:33:38.745Z,11.47
2022-12-08T21:35:42.889Z,12.17
2022-12-08T21:37:46.839Z,11.50
2022-12-08T21:39:48.667Z,13.60
2022-12-08T21:42:09.212Z,11.17
2022-12-08T21:44:13.209Z,11.37
2022-12-08T21:46:17.132Z,9.60
2022-12-08T21:48:19.054Z,10.93
2022-12-08T21:50:20.894Z,9.80
2022-12-08T21:52:22.725Z,10.60
2022-12-08T21:54:24.722Z,10.27
2022-12-08T21:56:28.611Z,13.57
2022-12-08T21:58:32.382Z,10.87
2022-12-08T22:00:34.526Z,11.37
2022-12-08T22:02:36.440Z,11.90
2022-12-08T22:04:38.808Z,10.90
2022-12-08T22:06:40.607Z,10.57
2022-12-08T22:08:42.811Z,11.87
2022-12-08T22:10:48.556Z,12.73
2022-12-08T22:12:52.664Z,11.23
2022-12-08T22:14:54.471Z,11.07
2022-12-08T22:16:56.302Z,11.73
2022-12-08T22:18:59.229Z,9.97
2022-12-08T22:21:01.208Z,10.83
2022-12-08T22:23:03.079Z,10.70
2022-12-08T22:25:10.950Z,9.30
2022-12-08T22:27:12.819Z,10.67
2022-12-08T22:29:14.854Z,11.00
2022-12-08T22:31:21.424Z,10.73
2022-12-08T22:33:23.268Z,11.67
2022-12-08T22:35:24.943Z,10.50
2022-12-08T22:37:26.603Z,10.03
2022-12-08T22:39:28.250Z,10.93
2022-12-08T22:41:29.956Z,10.57
2022-12-08T22:43:34.681Z,11.77
2022-12-08T22:45:36.524Z,12.63
2022-12-08T22:47:38.416Z,12.13
2022-12-08T22:49:40.282Z,11.43
2022-12-08T22:51:41.949Z,12.23
2022-12-08T22:53:44.525Z,11.77
2022-12-08T22:55:46.507Z,10.43
2022-12-08T22:57:48.298Z,11.37
2022-12-08T22:59:49.974Z,12.57
2022-12-08T23:01:53.963Z,11.10
2022-12-08T23:03:56.766Z,11.63
2022-12-08T23:06:01.710Z,10.53
2022-12-08T23:08:05.561Z,12.63
2022-12-08T23:10:10.034Z,11.87
2022-12-08T23:12:12.246Z,11.90
2022-12-08T23:14:14.944Z,12.33
2022-12-08T23:16:16.856Z,12.63
2022-12-08T23:18:19.312Z,12.17
2022-12-08T23:20:21.710Z,12.17
2022-12-08T23:22:23.477Z,11.40
2022-12-08T23:24:25.147Z,11.93
2022-12-08T23:26:29.773Z,12.70
2022-12-08T23:28:31.581Z,13.67
2022-12-08T23:30:33.605Z,11.50
2022-12-08T23:32:35.479Z,12.00
2022-12-08T23:34:39.392Z,12.70
2022-12-08T23:36:43.988Z,13.27
2022-12-08T23:38:48.113Z,13.27
2022-12-08T23:40:49.871Z,11.77
2022-12-08T23:42:51.622Z,10.47
2022-12-08T23:44:55.723Z,10.93
2022-12-08T23:47:00.327Z,14.13
2022-12-08T23:49:02.402Z,11.43
2022-12-08T23:51:04.198Z,12.07
2022-12-08T23:53:05.892Z,12.37
2022-12-08T23:55:08.525Z,11.80
2022-12-08T23:57:10.272Z,11.23
2022-12-08T23:59:12.012Z,12.83
